A- A+ FrançaisEnglishEspañol中国

Services sur Internet Soldes sur Internet Des idées de cadeaux Météo Météo aéro

La météo à : Autours de vous Tarbes-Lourdes-PyrénéesDreux-Vernouillet La-Baule-Escoublac Meaux-Esbly

manche à air

La météo aéronautique pour les pilotes, la préparation du vol avec les METAR (METeorological Aerodrome Report, message d'observation des conditions météorologiques pour l'aviation) et Les TAF (Terminal Aerodrome Forecast : message de prévision à court terme des conditions météorologiques pour l'aviation). Et les autres ressources comme les VAC (Visual Approch Chart) et les NOTAM (Notice To Airman) pour préprer les vols.

Aéroport Stauning (Danemark) / OACI EKVJ/ IATA STA

L'altitude de l'aéroport Stauning est de 5 m = 16 ft. Il est situé à proximité de Skjern Ringkøbing (Danemark). La météo générale à 5 jours est disponible pour Ringkøbing-Skjern Kommune situé à 3.5 km.

METAR de l'aéroport Stauning - EKVJ

EKVJ 290950Z VRB04KT 9999 FEW012 BKN180 15/13 Q0998

Décodage du METAR de l'aéroport Stauning (DK)

METAR émis par EKVJ le dimanche 29 septembre 2019 à 09:50 heure TU. Attention ce METAR est obsolète car il a été émis il y a 2 heure et 46 minutes.

La visibilité est de supérieure à 10 km = supérieure à 6.2 sm.

La température est de 15°C = 59 °F et le point rosée est de 13°C = 55 °F . Ce qui correspond à 88% d'humidité relative.

Le QNH est de 998 hPa = 29.47 inHg

Vent de 4 kt = 7 km/h, orienté à °.

Nuages : Quelques nuages à 1200 ft = 370 mètres. Couverture nuageuse fragmentée à 18000 ft = 5490 mètres.

TAF de l'aéroport Stauning - EKVJ

EKVJ 290858Z 2909/2915 15006KT 9999 SCT020 TEMPO 2909/2912 SCT020TCU BECMG 2912/2915 3000 RADZ BKN008

EKVJ 290858Z 2909/2915 15006KT 9999 nuages épars à 020 temporairement 2909/2912 nuages épars à 020TCU devenant 2912/2915 3000 pluie DZ couverture nuageuse fragmentée à 008

Aéroport à proximité de Stauning

Météo générale à 5 jours à Ringkøbing-Skjern Kommune (3.5 km)Aéroport Spjald (16 km)Aéroport Herning Skinderholm (48 km)Aéroport Esbjerg (53 km)Aéroport Billund (57 km)Aéroport Lemvig (57 km)Aéroport Karup MIL (59 km)

Vue aérienne de l'aéroport Stauning

NOTAM de l'aéroport Stauning

Les NOTAM sont fournis sans aucune garantie de leur actualité. Le pilote est le seul responsable de la vérification de sa validité avant de l'utiliser opérationnellement pour préparer un vol ou l'utiliser lors de sa navigation.

Pas de NOTAM

Sources des données